sensor_id;sensor_type;location;lat;lon;timestamp;P1;durP1;ratioP1;P2;durP2;ratioP2
26824;SDS011;14402;48.178;11.566;2022-08-21T00:00:25;4.5;;;2.2;;
26824;SDS011;14402;48.178;11.566;2022-08-21T00:00:54;4.5;;;2.2;;
26824;SDS011;14402;48.178;11.566;2022-08-21T00:01:25;4.5;;;2.2;;
26824;SDS011;14402;48.178;11.566;2022-08-21T00:01:54;3.8;;;2.2;;
26824;SDS011;14402;48.178;11.566;2022-08-21T00:02:25;3.2;;;2.2;;
26824;SDS011;14402;48.178;11.566;2022-08-21T00:02:55;3.2;;;2.2;;
26824;SDS011;14402;48.178;11.566;2022-08-21T00:03:24;3.2;;;2.2;;
26824;SDS011;14402;48.178;11.566;2022-08-21T00:03:54;2.6;;;2.0;;
26824;SDS011;14402;48.178;11.566;2022-08-21T00:04:24;2.0;;;1.8;;
26824;SDS011;14402;48.178;11.566;2022-08-21T00:04:54;2.0;;;1.8;;
26824;SDS011;14402;48.178;11.566;2022-08-21T00:05:25;2.0;;;1.8;;
26824;SDS011;14402;48.178;11.566;2022-08-21T00:05:54;2.4;;;1.8;;
26824;SDS011;14402;48.178;11.566;2022-08-21T00:06:24;2.8;;;1.8;;
26824;SDS011;14402;48.178;11.566;2022-08-21T00:06:54;2.8;;;1.8;;
26824;SDS011;14402;48.178;11.566;2022-08-21T00:07:24;2.8;;;1.8;;
26824;SDS011;14402;48.178;11.566;2022-08-21T00:07:54;2.9;;;2.0;;
26824;SDS011;14402;48.178;11.566;2022-08-21T00:08:24;3.1;;;2.2;;
26824;SDS011;14402;48.178;11.566;2022-08-21T00:08:54;3.1;;;2.2;;
26824;SDS011;14402;48.178;11.566;2022-08-21T00:09:24;3.1;;;2.2;;
26824;SDS011;14402;48.178;11.566;2022-08-21T00:09:54;4.3;;;3.6;;
26824;SDS011;14402;48.178;11.566;2022-08-21T00:10:24;5.6;;;5.0;;
26824;SDS011;14402;48.178;11.566;2022-08-21T00:10:54;5.6;;;5.0;;
26824;SDS011;14402;48.178;11.566;2022-08-21T00:11:24;5.6;;;5.0;;
26824;SDS011;14402;48.178;11.566;2022-08-21T00:11:54;10.9;;;9.8;;
26824;SDS011;14402;48.178;11.566;2022-08-21T00:12:24;16.1;;;14.6;;
26824;SDS011;14402;48.178;11.566;2022-08-21T00:12:54;16.1;;;14.6;;
26824;SDS011;14402;48.178;11.566;2022-08-21T00:13:24;16.1;;;14.6;;
26824;SDS011;14402;48.178;11.566;2022-08-21T00:13:54;31.3;;;28.2;;
26824;SDS011;14402;48.178;11.566;2022-08-21T00:14:24;46.5;;;41.7;;
26824;SDS011;14402;48.178;11.566;2022-08-21T00:14:54;46.5;;;41.7;;
26824;SDS011;14402;48.178;11.566;2022-08-21T00:15:25;46.5;;;41.7;;
26824;SDS011;14402;48.178;11.566;2022-08-21T00:15:54;36.0;;;32.3;;
26824;SDS011;14402;48.178;11.566;2022-08-21T00:16:24;25.4;;;22.9;;
26824;SDS011;14402;48.178;11.566;2022-08-21T00:16:54;25.4;;;22.9;;
26824;SDS011;14402;48.178;11.566;2022-08-21T00:17:25;25.4;;;22.9;;
26824;SDS011;14402;48.178;11.566;2022-08-21T00:17:54;23.5;;;21.2;;
26824;SDS011;14402;48.178;11.566;2022-08-21T00:18:24;21.6;;;19.5;;
26824;SDS011;14402;48.178;11.566;2022-08-21T00:18:54;21.6;;;19.5;;
26824;SDS011;14402;48.178;11.566;2022-08-21T00:19:24;21.6;;;19.5;;
26824;SDS011;14402;48.178;11.566;2022-08-21T00:19:54;18.7;;;16.9;;
26824;SDS011;14402;48.178;11.566;2022-08-21T00:20:24;15.8;;;14.2;;
26824;SDS011;14402;48.178;11.566;2022-08-21T00:20:54;15.8;;;14.2;;
26824;SDS011;14402;48.178;11.566;2022-08-21T00:21:24;15.8;;;14.2;;
26824;SDS011;14402;48.178;11.566;2022-08-21T00:21:54;11.7;;;10.6;;
26824;SDS011;14402;48.178;11.566;2022-08-21T00:22:24;7.6;;;6.9;;
26824;SDS011;14402;48.178;11.566;2022-08-21T00:22:54;7.6;;;6.9;;
26824;SDS011;14402;48.178;11.566;2022-08-21T00:23:24;7.6;;;6.9;;
26824;SDS011;14402;48.178;11.566;2022-08-21T00:23:54;7.1;;;6.4;;
26824;SDS011;14402;48.178;11.566;2022-08-21T00:24:24;6.6;;;6.0;;
26824;SDS011;14402;48.178;11.566;2022-08-21T00:24:54;6.6;;;6.0;;
26824;SDS011;14402;48.178;11.566;2022-08-21T00:25:24;6.6;;;6.0;;
26824;SDS011;14402;48.178;11.566;2022-08-21T00:25:54;10.8;;;9.7;;
26824;SDS011;14402;48.178;11.566;2022-08-21T00:26:24;14.9;;;13.4;;
26824;SDS011;14402;48.178;11.566;2022-08-21T00:26:54;14.9;;;13.4;;
26824;SDS011;14402;48.178;11.566;2022-08-21T00:27:24;14.9;;;13.4;;
26824;SDS011;14402;48.178;11.566;2022-08-21T00:27:54;13.5;;;12.2;;
26824;SDS011;14402;48.178;11.566;2022-08-21T00:28:24;12.2;;;11.0;;
26824;SDS011;14402;48.178;11.566;2022-08-21T00:28:54;12.2;;;11.0;;
26824;SDS011;14402;48.178;11.566;2022-08-21T00:29:24;12.2;;;11.0;;
26824;SDS011;14402;48.178;11.566;2022-08-21T00:29:54;9.6;;;8.4;;
26824;SDS011;14402;48.178;11.566;2022-08-21T00:30:25;6.9;;;5.8;;
26824;SDS011;14402;48.178;11.566;2022-08-21T00:30:54;6.9;;;5.8;;
26824;SDS011;14402;48.178;11.566;2022-08-21T00:31:24;6.9;;;5.8;;
26824;SDS011;14402;48.178;11.566;2022-08-21T00:31:54;9.9;;;8.7;;
26824;SDS011;14402;48.178;11.566;2022-08-21T00:32:25;13.0;;;11.6;;
26824;SDS011;14402;48.178;11.566;2022-08-21T00:32:55;13.0;;;11.6;;
26824;SDS011;14402;48.178;11.566;2022-08-21T00:33:24;13.0;;;11.6;;
26824;SDS011;14402;48.178;11.566;2022-08-21T00:33:54;9.1;;;8.1;;
26824;SDS011;14402;48.178;11.566;2022-08-21T00:34:24;5.1;;;4.6;;
26824;SDS011;14402;48.178;11.566;2022-08-21T00:34:54;5.1;;;4.6;;
26824;SDS011;14402;48.178;11.566;2022-08-21T00:35:26;5.1;;;4.6;;
26824;SDS011;14402;48.178;11.566;2022-08-21T00:35:54;6.9;;;6.2;;
26824;SDS011;14402;48.178;11.566;2022-08-21T00:36:24;8.7;;;7.9;;
26824;SDS011;14402;48.178;11.566;2022-08-21T00:36:54;8.7;;;7.9;;
26824;SDS011;14402;48.178;11.566;2022-08-21T00:37:24;8.7;;;7.9;;
26824;SDS011;14402;48.178;11.566;2022-08-21T00:37:54;11.2;;;10.2;;
26824;SDS011;14402;48.178;11.566;2022-08-21T00:38:24;13.8;;;12.5;;
26824;SDS011;14402;48.178;11.566;2022-08-21T00:38:54;13.8;;;12.5;;
26824;SDS011;14402;48.178;11.566;2022-08-21T00:39:24;13.8;;;12.5;;
26824;SDS011;14402;48.178;11.566;2022-08-21T00:39:54;14.2;;;12.9;;
26824;SDS011;14402;48.178;11.566;2022-08-21T00:40:27;14.7;;;13.4;;
26824;SDS011;14402;48.178;11.566;2022-08-21T00:40:57;14.7;;;13.4;;
26824;SDS011;14402;48.178;11.566;2022-08-21T00:41:24;14.7;;;13.4;;
26824;SDS011;14402;48.178;11.566;2022-08-21T00:41:54;11.0;;;10.0;;
26824;SDS011;14402;48.178;11.566;2022-08-21T00:42:24;7.3;;;6.6;;
26824;SDS011;14402;48.178;11.566;2022-08-21T00:42:54;7.3;;;6.6;;
26824;SDS011;14402;48.178;11.566;2022-08-21T00:43:27;7.3;;;6.6;;
26824;SDS011;14402;48.178;11.566;2022-08-21T00:43:54;12.6;;;11.3;;
26824;SDS011;14402;48.178;11.566;2022-08-21T00:44:24;17.9;;;16.0;;
26824;SDS011;14402;48.178;11.566;2022-08-21T00:44:54;17.9;;;16.0;;
26824;SDS011;14402;48.178;11.566;2022-08-21T00:45:24;17.9;;;16.0;;
26824;SDS011;14402;48.178;11.566;2022-08-21T00:45:55;16.1;;;14.4;;
26824;SDS011;14402;48.178;11.566;2022-08-21T00:46:24;14.3;;;12.8;;
26824;SDS011;14402;48.178;11.566;2022-08-21T00:46:54;14.3;;;12.8;;
26824;SDS011;14402;48.178;11.566;2022-08-21T00:47:24;14.3;;;12.8;;
26824;SDS011;14402;48.178;11.566;2022-08-21T00:47:54;16.1;;;14.5;;
26824;SDS011;14402;48.178;11.566;2022-08-21T00:48:24;18.0;;;16.2;;
26824;SDS011;14402;48.178;11.566;2022-08-21T00:48:54;18.0;;;16.2;;
26824;SDS011;14402;48.178;11.566;2022-08-21T00:49:24;18.0;;;16.2;;
26824;SDS011;14402;48.178;11.566;2022-08-21T00:49:54;11.7;;;10.6;;
26824;SDS011;14402;48.178;11.566;2022-08-21T00:50:26;5.4;;;4.9;;
26824;SDS011;14402;48.178;11.566;2022-08-21T00:50:56;5.4;;;4.9;;
26824;SDS011;14402;48.178;11.566;2022-08-21T00:51:25;5.4;;;4.9;;
26824;SDS011;14402;48.178;11.566;2022-08-21T00:51:55;4.1;;;3.8;;
26824;SDS011;14402;48.178;11.566;2022-08-21T00:52:25;2.8;;;2.6;;
26824;SDS011;14402;48.178;11.566;2022-08-21T00:52:54;2.8;;;2.6;;
26824;SDS011;14402;48.178;11.566;2022-08-21T00:53:25;2.8;;;2.6;;
26824;SDS011;14402;48.178;11.566;2022-08-21T00:53:55;3.6;;;3.2;;
26824;SDS011;14402;48.178;11.566;2022-08-21T00:54:26;4.3;;;3.9;;
26824;SDS011;14402;48.178;11.566;2022-08-21T00:54:55;4.3;;;3.9;;
26824;SDS011;14402;48.178;11.566;2022-08-21T00:55:24;4.3;;;3.9;;
26824;SDS011;14402;48.178;11.566;2022-08-21T00:55:54;4.4;;;4.1;;
26824;SDS011;14402;48.178;11.566;2022-08-21T00:56:24;4.6;;;4.2;;
26824;SDS011;14402;48.178;11.566;2022-08-21T00:56:57;4.6;;;4.2;;
26824;SDS011;14402;48.178;11.566;2022-08-21T00:57:26;4.6;;;4.2;;
26824;SDS011;14402;48.178;11.566;2022-08-21T00:57:55;4.5;;;4.1;;
26824;SDS011;14402;48.178;11.566;2022-08-21T00:58:25;4.4;;;3.9;;
26824;SDS011;14402;48.178;11.566;2022-08-21T00:58:55;4.4;;;3.9;;
26824;SDS011;14402;48.178;11.566;2022-08-21T00:59:24;4.4;;;3.9;;
26824;SDS011;14402;48.178;11.566;2022-08-21T00:59:56;4.2;;;3.8;;
26824;SDS011;14402;48.178;11.566;2022-08-21T01:00:30;4.1;;;3.7;;
26824;SDS011;14402;48.178;11.566;2022-08-21T01:00:54;4.1;;;3.7;;
26824;SDS011;14402;48.178;11.566;2022-08-21T01:01:24;4.1;;;3.7;;
26824;SDS011;14402;48.178;11.566;2022-08-21T01:01:55;3.7;;;3.0;;
26824;SDS011;14402;48.178;11.566;2022-08-21T01:02:24;3.3;;;2.2;;
26824;SDS011;14402;48.178;11.566;2022-08-21T01:02:55;3.3;;;2.2;;
26824;SDS011;14402;48.178;11.566;2022-08-21T01:03:24;3.3;;;2.2;;
26824;SDS011;14402;48.178;11.566;2022-08-21T01:03:55;2.9;;;2.2;;
26824;SDS011;14402;48.178;11.566;2022-08-21T01:04:25;2.5;;;2.2;;
26824;SDS011;14402;48.178;11.566;2022-08-21T01:04:54;2.5;;;2.2;;
26824;SDS011;14402;48.178;11.566;2022-08-21T01:05:25;2.5;;;2.2;;
26824;SDS011;14402;48.178;11.566;2022-08-21T01:05:55;2.5;;;2.2;;
26824;SDS011;14402;48.178;11.566;2022-08-21T01:06:25;3.0;;;2.2;;
26824;SDS011;14402;48.178;11.566;2022-08-21T01:06:55;3.4;;;2.3;;
26824;SDS011;14402;48.178;11.566;2022-08-21T01:07:25;3.4;;;2.3;;
26824;SDS011;14402;48.178;11.566;2022-08-21T01:07:55;3.4;;;2.3;;
26824;SDS011;14402;48.178;11.566;2022-08-21T01:08:25;3.1;;;2.4;;
26824;SDS011;14402;48.178;11.566;2022-08-21T01:08:55;2.8;;;2.6;;
26824;SDS011;14402;48.178;11.566;2022-08-21T01:09:25;2.8;;;2.6;;
26824;SDS011;14402;48.178;11.566;2022-08-21T01:09:55;2.8;;;2.6;;
26824;SDS011;14402;48.178;11.566;2022-08-21T01:10:25;2.8;;;2.2;;
26824;SDS011;14402;48.178;11.566;2022-08-21T01:10:55;2.9;;;1.8;;
26824;SDS011;14402;48.178;11.566;2022-08-21T01:11:25;2.9;;;1.8;;
26824;SDS011;14402;48.178;11.566;2022-08-21T01:11:55;2.9;;;1.8;;
26824;SDS011;14402;48.178;11.566;2022-08-21T01:12:25;2.6;;;1.8;;
26824;SDS011;14402;48.178;11.566;2022-08-21T01:12:55;2.3;;;1.7;;
26824;SDS011;14402;48.178;11.566;2022-08-21T01:13:25;2.3;;;1.7;;
26824;SDS011;14402;48.178;11.566;2022-08-21T01:13:55;2.3;;;1.7;;
26824;SDS011;14402;48.178;11.566;2022-08-21T01:14:25;2.7;;;1.5;;
26824;SDS011;14402;48.178;11.566;2022-08-21T01:14:55;3.0;;;1.4;;
26824;SDS011;14402;48.178;11.566;2022-08-21T01:15:26;3.0;;;1.4;;
26824;SDS011;14402;48.178;11.566;2022-08-21T01:15:56;3.0;;;1.4;;
26824;SDS011;14402;48.178;11.566;2022-08-21T01:16:25;2.5;;;1.6;;
26824;SDS011;14402;48.178;11.566;2022-08-21T01:16:55;1.9;;;1.8;;
26824;SDS011;14402;48.178;11.566;2022-08-21T01:17:26;1.9;;;1.8;;
26824;SDS011;14402;48.178;11.566;2022-08-21T01:17:55;1.9;;;1.8;;
26824;SDS011;14402;48.178;11.566;2022-08-21T01:18:25;1.7;;;1.6;;
26824;SDS011;14402;48.178;11.566;2022-08-21T01:18:55;1.5;;;1.4;;
26824;SDS011;14402;48.178;11.566;2022-08-21T01:19:25;1.5;;;1.4;;
26824;SDS011;14402;48.178;11.566;2022-08-21T01:19:56;1.5;;;1.4;;
26824;SDS011;14402;48.178;11.566;2022-08-21T01:20:25;2.0;;;1.4;;
26824;SDS011;14402;48.178;11.566;2022-08-21T01:20:58;2.4;;;1.4;;
26824;SDS011;14402;48.178;11.566;2022-08-21T01:21:25;2.4;;;1.4;;
26824;SDS011;14402;48.178;11.566;2022-08-21T01:21:55;2.4;;;1.4;;
26824;SDS011;14402;48.178;11.566;2022-08-21T01:22:25;2.2;;;1.5;;
26824;SDS011;14402;48.178;11.566;2022-08-21T01:22:55;1.9;;;1.7;;
26824;SDS011;14402;48.178;11.566;2022-08-21T01:23:25;1.9;;;1.7;;
26824;SDS011;14402;48.178;11.566;2022-08-21T01:23:55;1.9;;;1.7;;
26824;SDS011;14402;48.178;11.566;2022-08-21T01:24:25;3.0;;;2.6;;
26824;SDS011;14402;48.178;11.566;2022-08-21T01:24:55;4.2;;;3.5;;
26824;SDS011;14402;48.178;11.566;2022-08-21T01:25:25;4.2;;;3.5;;
26824;SDS011;14402;48.178;11.566;2022-08-21T01:25:55;4.2;;;3.5;;
26824;SDS011;14402;48.178;11.566;2022-08-21T01:26:26;3.8;;;3.3;;
26824;SDS011;14402;48.178;11.566;2022-08-21T01:26:55;3.4;;;3.1;;
26824;SDS011;14402;48.178;11.566;2022-08-21T01:27:25;3.4;;;3.1;;
26824;SDS011;14402;48.178;11.566;2022-08-21T01:27:55;3.4;;;3.1;;
26824;SDS011;14402;48.178;11.566;2022-08-21T01:28:25;3.3;;;2.9;;
26824;SDS011;14402;48.178;11.566;2022-08-21T01:28:56;3.2;;;2.8;;
26824;SDS011;14402;48.178;11.566;2022-08-21T01:29:27;3.2;;;2.8;;
26824;SDS011;14402;48.178;11.566;2022-08-21T01:29:56;3.2;;;2.8;;
26824;SDS011;14402;48.178;11.566;2022-08-21T01:30:26;2.4;;;2.2;;
26824;SDS011;14402;48.178;11.566;2022-08-21T01:30:55;1.6;;;1.5;;
26824;SDS011;14402;48.178;11.566;2022-08-21T01:31:25;1.6;;;1.5;;
26824;SDS011;14402;48.178;11.566;2022-08-21T01:31:55;1.6;;;1.5;;
26824;SDS011;14402;48.178;11.566;2022-08-21T01:32:25;2.2;;;1.9;;
26824;SDS011;14402;48.178;11.566;2022-08-21T01:32:55;2.7;;;2.3;;
26824;SDS011;14402;48.178;11.566;2022-08-21T01:33:25;2.7;;;2.3;;
26824;SDS011;14402;48.178;11.566;2022-08-21T01:33:55;2.7;;;2.3;;
26824;SDS011;14402;48.178;11.566;2022-08-21T01:34:25;2.6;;;2.2;;
26824;SDS011;14402;48.178;11.566;2022-08-21T01:34:55;2.5;;;2.0;;
26824;SDS011;14402;48.178;11.566;2022-08-21T01:35:25;2.5;;;2.0;;
26824;SDS011;14402;48.178;11.566;2022-08-21T01:35:55;2.5;;;2.0;;
26824;SDS011;14402;48.178;11.566;2022-08-21T01:36:25;2.1;;;1.8;;
26824;SDS011;14402;48.178;11.566;2022-08-21T01:36:55;1.7;;;1.6;;
26824;SDS011;14402;48.178;11.566;2022-08-21T01:37:25;1.7;;;1.6;;
26824;SDS011;14402;48.178;11.566;2022-08-21T01:37:55;1.7;;;1.6;;
26824;SDS011;14402;48.178;11.566;2022-08-21T01:38:25;2.0;;;1.7;;
26824;SDS011;14402;48.178;11.566;2022-08-21T01:38:55;2.2;;;1.8;;
26824;SDS011;14402;48.178;11.566;2022-08-21T01:39:25;2.2;;;1.8;;
26824;SDS011;14402;48.178;11.566;2022-08-21T01:39:55;2.2;;;1.8;;
26824;SDS011;14402;48.178;11.566;2022-08-21T01:40:25;2.0;;;1.7;;
26824;SDS011;14402;48.178;11.566;2022-08-21T01:40:55;1.7;;;1.6;;
26824;SDS011;14402;48.178;11.566;2022-08-21T01:41:25;1.7;;;1.6;;
26824;SDS011;14402;48.178;11.566;2022-08-21T01:41:55;1.7;;;1.6;;
26824;SDS011;14402;48.178;11.566;2022-08-21T01:42:25;1.7;;;1.5;;
26824;SDS011;14402;48.178;11.566;2022-08-21T01:42:55;1.6;;;1.5;;
26824;SDS011;14402;48.178;11.566;2022-08-21T01:43:25;1.6;;;1.5;;
26824;SDS011;14402;48.178;11.566;2022-08-21T01:43:55;1.6;;;1.5;;
26824;SDS011;14402;48.178;11.566;2022-08-21T01:44:25;2.0;;;1.5;;
26824;SDS011;14402;48.178;11.566;2022-08-21T01:44:55;2.3;;;1.5;;
26824;SDS011;14402;48.178;11.566;2022-08-21T01:45:25;2.3;;;1.5;;
26824;SDS011;14402;48.178;11.566;2022-08-21T01:45:55;2.3;;;1.5;;
26824;SDS011;14402;48.178;11.566;2022-08-21T01:46:25;2.0;;;1.4;;
26824;SDS011;14402;48.178;11.566;2022-08-21T01:46:55;1.8;;;1.3;;
26824;SDS011;14402;48.178;11.566;2022-08-21T01:47:25;1.8;;;1.3;;
26824;SDS011;14402;48.178;11.566;2022-08-21T01:47:55;1.8;;;1.3;;
26824;SDS011;14402;48.178;11.566;2022-08-21T01:48:25;2.7;;;1.6;;
26824;SDS011;14402;48.178;11.566;2022-08-21T01:48:55;3.5;;;2.0;;
26824;SDS011;14402;48.178;11.566;2022-08-21T01:49:25;3.5;;;2.0;;
26824;SDS011;14402;48.178;11.566;2022-08-21T01:49:55;3.5;;;2.0;;
26824;SDS011;14402;48.178;11.566;2022-08-21T01:50:25;3.8;;;2.8;;
26824;SDS011;14402;48.178;11.566;2022-08-21T01:50:55;4.0;;;3.6;;
26824;SDS011;14402;48.178;11.566;2022-08-21T01:51:25;4.0;;;3.6;;
26824;SDS011;14402;48.178;11.566;2022-08-21T01:51:55;4.0;;;3.6;;
26824;SDS011;14402;48.178;11.566;2022-08-21T01:52:25;3.8;;;3.2;;
26824;SDS011;14402;48.178;11.566;2022-08-21T01:52:55;3.5;;;2.7;;
26824;SDS011;14402;48.178;11.566;2022-08-21T01:53:25;3.5;;;2.7;;
26824;SDS011;14402;48.178;11.566;2022-08-21T01:53:55;3.5;;;2.7;;
26824;SDS011;14402;48.178;11.566;2022-08-21T01:54:25;3.5;;;2.8;;
26824;SDS011;14402;48.178;11.566;2022-08-21T01:54:55;3.4;;;3.0;;
26824;SDS011;14402;48.178;11.566;2022-08-21T01:55:25;3.4;;;3.0;;
26824;SDS011;14402;48.178;11.566;2022-08-21T01:55:55;3.4;;;3.0;;
26824;SDS011;14402;48.178;11.566;2022-08-21T01:56:25;3.1;;;2.8;;
26824;SDS011;14402;48.178;11.566;2022-08-21T01:56:56;2.8;;;2.5;;
26824;SDS011;14402;48.178;11.566;2022-08-21T01:57:25;2.8;;;2.5;;
26824;SDS011;14402;48.178;11.566;2022-08-21T01:57:56;2.8;;;2.5;;
26824;SDS011;14402;48.178;11.566;2022-08-21T01:58:25;2.8;;;2.3;;
26824;SDS011;14402;48.178;11.566;2022-08-21T01:58:55;2.8;;;2.1;;
26824;SDS011;14402;48.178;11.566;2022-08-21T01:59:25;2.8;;;2.1;;
26824;SDS011;14402;48.178;11.566;2022-08-21T01:59:55;2.8;;;2.1;;
26824;SDS011;14402;48.178;11.566;2022-08-21T02:00:25;2.9;;;2.2;;
26824;SDS011;14402;48.178;11.566;2022-08-21T02:00:55;3.1;;;2.2;;
26824;SDS011;14402;48.178;11.566;2022-08-21T02:01:25;3.1;;;2.2;;
26824;SDS011;14402;48.178;11.566;2022-08-21T02:01:55;3.1;;;2.2;;
26824;SDS011;14402;48.178;11.566;2022-08-21T02:02:25;2.8;;;2.1;;
26824;SDS011;14402;48.178;11.566;2022-08-21T02:02:55;2.4;;;2.0;;
26824;SDS011;14402;48.178;11.566;2022-08-21T02:03:25;2.4;;;2.0;;
26824;SDS011;14402;48.178;11.566;2022-08-21T02:03:55;2.4;;;2.0;;
26824;SDS011;14402;48.178;11.566;2022-08-21T02:04:25;2.7;;;2.2;;
26824;SDS011;14402;48.178;11.566;2022-08-21T02:04:55;3.0;;;2.3;;
26824;SDS011;14402;48.178;11.566;2022-08-21T02:05:25;3.0;;;2.3;;
26824;SDS011;14402;48.178;11.566;2022-08-21T02:05:55;3.0;;;2.3;;
26824;SDS011;14402;48.178;11.566;2022-08-21T02:06:25;3.0;;;1.9;;
26824;SDS011;14402;48.178;11.566;2022-08-21T02:06:55;3.1;;;1.5;;
26824;SDS011;14402;48.178;11.566;2022-08-21T02:07:25;3.1;;;1.5;;
26824;SDS011;14402;48.178;11.566;2022-08-21T02:07:55;3.1;;;1.5;;
26824;SDS011;14402;48.178;11.566;2022-08-21T02:08:27;2.7;;;1.5;;
26824;SDS011;14402;48.178;11.566;2022-08-21T02:08:55;2.3;;;1.5;;
26824;SDS011;14402;48.178;11.566;2022-08-21T02:09:25;2.3;;;1.5;;
26824;SDS011;14402;48.178;11.566;2022-08-21T02:09:55;2.3;;;1.5;;
26824;SDS011;14402;48.178;11.566;2022-08-21T02:10:27;1.8;;;1.4;;
26824;SDS011;14402;48.178;11.566;2022-08-21T02:10:55;1.3;;;1.2;;
26824;SDS011;14402;48.178;11.566;2022-08-21T02:11:25;1.3;;;1.2;;
26824;SDS011;14402;48.178;11.566;2022-08-21T02:11:55;1.3;;;1.2;;
26824;SDS011;14402;48.178;11.566;2022-08-21T02:12:25;2.3;;;1.4;;
26824;SDS011;14402;48.178;11.566;2022-08-21T02:12:55;3.4;;;1.5;;
26824;SDS011;14402;48.178;11.566;2022-08-21T02:13:25;3.4;;;1.5;;
26824;SDS011;14402;48.178;11.566;2022-08-21T02:13:55;3.4;;;1.5;;
26824;SDS011;14402;48.178;11.566;2022-08-21T02:14:25;3.2;;;2.2;;
26824;SDS011;14402;48.178;11.566;2022-08-21T02:14:55;3.1;;;2.8;;
26824;SDS011;14402;48.178;11.566;2022-08-21T02:15:25;3.1;;;2.8;;
26824;SDS011;14402;48.178;11.566;2022-08-21T02:15:55;3.1;;;2.8;;
26824;SDS011;14402;48.178;11.566;2022-08-21T02:16:25;2.9;;;2.7;;
26824;SDS011;14402;48.178;11.566;2022-08-21T02:16:55;2.8;;;2.5;;
26824;SDS011;14402;48.178;11.566;2022-08-21T02:17:26;2.8;;;2.5;;
26824;SDS011;14402;48.178;11.566;2022-08-21T02:17:57;2.8;;;2.5;;
26824;SDS011;14402;48.178;11.566;2022-08-21T02:18:25;2.6;;;2.3;;
26824;SDS011;14402;48.178;11.566;2022-08-21T02:18:55;2.4;;;2.2;;
26824;SDS011;14402;48.178;11.566;2022-08-21T02:19:25;2.4;;;2.2;;
26824;SDS011;14402;48.178;11.566;2022-08-21T02:19:55;2.4;;;2.2;;
26824;SDS011;14402;48.178;11.566;2022-08-21T02:20:26;2.4;;;2.2;;
26824;SDS011;14402;48.178;11.566;2022-08-21T02:20:55;2.4;;;2.2;;
26824;SDS011;14402;48.178;11.566;2022-08-21T02:21:25;2.4;;;2.2;;
26824;SDS011;14402;48.178;11.566;2022-08-21T02:21:55;2.4;;;2.2;;
26824;SDS011;14402;48.178;11.566;2022-08-21T02:22:25;2.5;;;2.2;;
26824;SDS011;14402;48.178;11.566;2022-08-21T02:22:55;2.5;;;2.2;;
26824;SDS011;14402;48.178;11.566;2022-08-21T02:23:25;2.5;;;2.2;;
26824;SDS011;14402;48.178;11.566;2022-08-21T02:23:55;2.5;;;2.2;;
26824;SDS011;14402;48.178;11.566;2022-08-21T02:24:25;2.4;;;2.2;;
26824;SDS011;14402;48.178;11.566;2022-08-21T02:24:55;2.3;;;2.1;;
26824;SDS011;14402;48.178;11.566;2022-08-21T02:25:26;2.3;;;2.1;;
26824;SDS011;14402;48.178;11.566;2022-08-21T02:25:56;2.3;;;2.1;;
26824;SDS011;14402;48.178;11.566;2022-08-21T02:26:25;2.4;;;1.8;;
26824;SDS011;14402;48.178;11.566;2022-08-21T02:26:55;2.6;;;1.6;;
26824;SDS011;14402;48.178;11.566;2022-08-21T02:27:26;2.6;;;1.6;;
26824;SDS011;14402;48.178;11.566;2022-08-21T02:27:55;2.6;;;1.6;;
26824;SDS011;14402;48.178;11.566;2022-08-21T02:28:26;2.2;;;1.5;;
26824;SDS011;14402;48.178;11.566;2022-08-21T02:28:55;1.9;;;1.4;;
26824;SDS011;14402;48.178;11.566;2022-08-21T02:29:25;1.9;;;1.4;;
26824;SDS011;14402;48.178;11.566;2022-08-21T02:29:56;1.9;;;1.4;;
26824;SDS011;14402;48.178;11.566;2022-08-21T02:30:26;2.0;;;1.5;;
26824;SDS011;14402;48.178;11.566;2022-08-21T02:30:56;2.0;;;1.7;;
26824;SDS011;14402;48.178;11.566;2022-08-21T02:31:25;2.0;;;1.7;;
26824;SDS011;14402;48.178;11.566;2022-08-21T02:31:55;2.0;;;1.7;;
26824;SDS011;14402;48.178;11.566;2022-08-21T02:32:25;2.4;;;2.0;;
26824;SDS011;14402;48.178;11.566;2022-08-21T02:32:55;2.8;;;2.2;;
26824;SDS011;14402;48.178;11.566;2022-08-21T02:33:25;2.8;;;2.2;;
26824;SDS011;14402;48.178;11.566;2022-08-21T02:33:55;2.8;;;2.2;;
26824;SDS011;14402;48.178;11.566;2022-08-21T02:34:25;2.7;;;2.0;;
26824;SDS011;14402;48.178;11.566;2022-08-21T02:34:55;2.5;;;1.9;;
26824;SDS011;14402;48.178;11.566;2022-08-21T02:35:25;2.5;;;1.9;;
26824;SDS011;14402;48.178;11.566;2022-08-21T02:35:56;2.5;;;1.9;;
26824;SDS011;14402;48.178;11.566;2022-08-21T02:36:26;2.2;;;1.6;;
26824;SDS011;14402;48.178;11.566;2022-08-21T02:36:55;1.8;;;1.4;;
26824;SDS011;14402;48.178;11.566;2022-08-21T02:37:26;1.8;;;1.4;;
26824;SDS011;14402;48.178;11.566;2022-08-21T02:37:56;1.8;;;1.4;;
26824;SDS011;14402;48.178;11.566;2022-08-21T02:38:27;1.6;;;1.3;;
26824;SDS011;14402;48.178;11.566;2022-08-21T02:38:56;1.4;;;1.2;;
26824;SDS011;14402;48.178;11.566;2022-08-21T02:39:25;1.4;;;1.2;;
26824;SDS011;14402;48.178;11.566;2022-08-21T02:39:55;1.4;;;1.2;;
26824;SDS011;14402;48.178;11.566;2022-08-21T02:40:26;1.5;;;1.1;;
26824;SDS011;14402;48.178;11.566;2022-08-21T02:40:56;1.7;;;1.0;;
26824;SDS011;14402;48.178;11.566;2022-08-21T02:41:26;1.7;;;1.0;;
26824;SDS011;14402;48.178;11.566;2022-08-21T02:41:55;1.7;;;1.0;;
26824;SDS011;14402;48.178;11.566;2022-08-21T02:42:25;1.5;;;1.0;;
26824;SDS011;14402;48.178;11.566;2022-08-21T02:42:56;1.2;;;1.0;;
26824;SDS011;14402;48.178;11.566;2022-08-21T02:43:26;1.2;;;1.0;;
26824;SDS011;14402;48.178;11.566;2022-08-21T02:43:55;1.2;;;1.0;;
26824;SDS011;14402;48.178;11.566;2022-08-21T02:44:25;1.2;;;0.9;;
26824;SDS011;14402;48.178;11.566;2022-08-21T02:44:55;1.2;;;0.9;;
26824;SDS011;14402;48.178;11.566;2022-08-21T02:45:26;1.2;;;0.9;;
26824;SDS011;14402;48.178;11.566;2022-08-21T02:45:56;1.2;;;0.9;;
26824;SDS011;14402;48.178;11.566;2022-08-21T02:46:26;2.8;;;1.8;;
26824;SDS011;14402;48.178;11.566;2022-08-21T02:46:56;4.3;;;2.7;;
26824;SDS011;14402;48.178;11.566;2022-08-21T02:47:26;4.3;;;2.7;;
26824;SDS011;14402;48.178;11.566;2022-08-21T02:47:56;4.3;;;2.7;;
26824;SDS011;14402;48.178;11.566;2022-08-21T02:48:27;4.2;;;2.6;;
26824;SDS011;14402;48.178;11.566;2022-08-21T02:48:56;4.1;;;2.4;;
26824;SDS011;14402;48.178;11.566;2022-08-21T02:49:26;4.1;;;2.4;;
26824;SDS011;14402;48.178;11.566;2022-08-21T02:49:56;4.1;;;2.4;;
26824;SDS011;14402;48.178;11.566;2022-08-21T02:50:27;3.4;;;2.0;;
26824;SDS011;14402;48.178;11.566;2022-08-21T02:50:57;2.7;;;1.6;;
26824;SDS011;14402;48.178;11.566;2022-08-21T02:51:26;2.7;;;1.6;;
26824;SDS011;14402;48.178;11.566;2022-08-21T02:51:56;2.7;;;1.6;;
26824;SDS011;14402;48.178;11.566;2022-08-21T02:52:26;2.0;;;1.5;;
26824;SDS011;14402;48.178;11.566;2022-08-21T02:52:56;1.4;;;1.3;;
26824;SDS011;14402;48.178;11.566;2022-08-21T02:53:26;1.4;;;1.3;;
26824;SDS011;14402;48.178;11.566;2022-08-21T02:53:56;1.4;;;1.3;;
26824;SDS011;14402;48.178;11.566;2022-08-21T02:54:26;1.6;;;1.2;;
26824;SDS011;14402;48.178;11.566;2022-08-21T02:54:56;1.8;;;1.2;;
26824;SDS011;14402;48.178;11.566;2022-08-21T02:55:26;1.8;;;1.2;;
26824;SDS011;14402;48.178;11.566;2022-08-21T02:55:57;1.8;;;1.2;;
26824;SDS011;14402;48.178;11.566;2022-08-21T02:56:26;1.5;;;1.2;;
26824;SDS011;14402;48.178;11.566;2022-08-21T02:56:56;1.2;;;1.1;;
26824;SDS011;14402;48.178;11.566;2022-08-21T02:57:26;1.2;;;1.1;;
26824;SDS011;14402;48.178;11.566;2022-08-21T02:57:56;1.2;;;1.1;;
26824;SDS011;14402;48.178;11.566;2022-08-21T02:58:26;1.7;;;1.0;;
26824;SDS011;14402;48.178;11.566;2022-08-21T02:58:56;2.2;;;1.0;;
26824;SDS011;14402;48.178;11.566;2022-08-21T02:59:26;2.2;;;1.0;;
26824;SDS011;14402;48.178;11.566;2022-08-21T02:59:56;2.2;;;1.0;;
26824;SDS011;14402;48.178;11.566;2022-08-21T03:00:27;2.0;;;1.1;;
26824;SDS011;14402;48.178;11.566;2022-08-21T03:00:56;1.8;;;1.2;;
26824;SDS011;14402;48.178;11.566;2022-08-21T03:01:26;1.8;;;1.2;;
26824;SDS011;14402;48.178;11.566;2022-08-21T03:01:56;1.8;;;1.2;;
26824;SDS011;14402;48.178;11.566;2022-08-21T03:02:26;1.6;;;1.0;;
26824;SDS011;14402;48.178;11.566;2022-08-21T03:02:56;1.5;;;0.9;;